Huvudsida
METAR-TAF:

METAR-TAF

Flygplatser :

Halli Airport

Jämsä, Finland

latitud: 61-51N, longitud: 024-48E, höjd: 143 m

Aktuellt väderrapport

Denna rapport gjordes för 17 minuter sedan, klockan 02:50 UTC
Vind 6 kt från sydost, varierande mellan ost/sydost och syd
Temperatur 15°C
Fuktighet 94%
Tryck 1012 hPa
Sikt 10 km eller mer
lätta regnskurar

METAR: EFHA 180250Z AUTO 14006KT 110V170 9999 -SHRA NSC 15/14 Q1012

Tid: 06:07 (03:07 UTC)


TAF: saknas

Aktuella väderrapporter och prognoser från 4000 flygplatser (METAR- och TAF-rapporter).

De tillgängliga stationerna syns som gula och röda prickar på kartan.

För musen över prickarna för att se namnen på stationerna.

Klicka sedan för att få väderrapporter och prognoser.

För att ändra kartan: Klicka på de gröna knapparna med ett svart kors på för att zooma in; den gröna knappen med ett streck på för att zooma ut; eller på de gröna pilarna för angränsande kartor.


METAR-TAF: